Jenkins, Minnesota
Current Conditions -  °F | °C
As of 7:34 PM on Thursday 27 Nov 2014 (Local Time) from KPWC Reporting Station
Overcast Overcast  
Wind Chill: -22°   Ceiling: 11000
Heat Index: -15°   Visibility: 10mi
Dew Point: -19°   Wind: 7mph
Humidity: 72%   Direction: 160°SSE
Pressure: 30.26"   Gusts: NA
Location:  46.65°N, 94.33°W
Report Text: KPWC 280134Z AUTO 16006KT 10SM OVC110 M15/M19 A3026 RMK AO2
Loading
Personal Weather Stations






























Interactive Weather Map New forecast layout! Learn more

10-Day Weather Forecast

Advertisements
Track Severe Weather on mobile